Farnam, Nebraska
Current Conditions -  °F | °C
As of 9:35 AM on Thursday 30 Oct 2014 (Local Time) from KLXN Reporting Station
Clear Clear  
Wind Chill: 39°   Ceiling: Unl
Heat Index: 45°   Visibility: 10mi
Dew Point: 32°   Wind: 13mph
Humidity: 60%   Direction: 310°NW
Pressure: 30.21"   Gusts: NA
Location:  40.71°N, 100.21°W
Report Text: KLXN 301435Z AUTO 31011KT 10SM CLR 07/00 A3021 RMK AO2 T00740000
Loading
Personal Weather Stations






























Interactive Weather Map
Tropical Storm Tracking
New forecast layout! Learn more

10-Day Weather Forecast

Advertisements
Track Severe Weather on mobile